sensor_id;sensor_type;location;lat;lon;timestamp;pressure;altitude;pressure_sealevel;temperature;humidity
18275;BME280;19470;49.322;7.218;2022-10-18T00:02:09;99515.81;;;22.59;100.00
18275;BME280;19470;49.322;7.218;2022-10-18T00:04:35;99517.09;;;22.01;100.00
18275;BME280;19470;49.322;7.218;2022-10-18T00:07:02;99517.84;;;22.07;100.00
18275;BME280;19470;49.322;7.218;2022-10-18T00:09:28;99515.81;;;21.66;100.00
18275;BME280;19470;49.322;7.218;2022-10-18T00:11:56;99524.38;;;22.01;100.00
18275;BME280;19470;49.322;7.218;2022-10-18T00:14:23;99524.38;;;22.47;100.00
18275;BME280;19470;49.322;7.218;2022-10-18T00:16:51;99518.88;;;22.80;100.00
18275;BME280;19470;49.322;7.218;2022-10-18T00:19:17;99518.09;;;22.38;100.00
18275;BME280;19470;49.322;7.218;2022-10-18T00:21:43;99512.97;;;22.23;100.00
18275;BME280;19470;49.322;7.218;2022-10-18T00:24:10;99515.59;;;22.28;100.00
18275;BME280;19470;49.322;7.218;2022-10-18T00:26:36;99519.66;;;22.25;100.00
18275;BME280;19470;49.322;7.218;2022-10-18T00:29:04;99514.63;;;21.72;100.00
18275;BME280;19470;49.322;7.218;2022-10-18T00:31:33;99510.06;;;22.19;100.00
18275;BME280;19470;49.322;7.218;2022-10-18T00:34:03;99511.28;;;22.27;100.00
18275;BME280;19470;49.322;7.218;2022-10-18T00:36:31;99519.16;;;22.23;100.00
18275;BME280;19470;49.322;7.218;2022-10-18T00:38:59;99520.56;;;22.20;100.00
18275;BME280;19470;49.322;7.218;2022-10-18T00:41:27;99514.78;;;22.27;100.00
18275;BME280;19470;49.322;7.218;2022-10-18T00:43:57;99513.59;;;22.33;100.00
18275;BME280;19470;49.322;7.218;2022-10-18T00:46:25;99509.97;;;22.24;100.00
18275;BME280;19470;49.322;7.218;2022-10-18T00:48:54;99517.88;;;22.34;100.00
18275;BME280;19470;49.322;7.218;2022-10-18T00:51:24;99500.31;;;21.90;100.00
18275;BME280;19470;49.322;7.218;2022-10-18T00:53:52;99503.97;;;22.13;100.00
18275;BME280;19470;49.322;7.218;2022-10-18T00:56:19;99508.59;;;22.68;100.00
18275;BME280;19470;49.322;7.218;2022-10-18T00:58:47;99499.19;;;22.24;100.00
18275;BME280;19470;49.322;7.218;2022-10-18T01:01:14;99503.38;;;22.16;100.00
18275;BME280;19470;49.322;7.218;2022-10-18T01:03:41;99502.38;;;22.12;100.00
18275;BME280;19470;49.322;7.218;2022-10-18T01:06:08;99500.63;;;22.49;100.00
18275;BME280;19470;49.322;7.218;2022-10-18T01:08:57;99498.47;;;22.18;100.00
18275;BME280;19470;49.322;7.218;2022-10-18T01:11:47;99506.81;;;22.50;100.00
18275;BME280;19470;49.322;7.218;2022-10-18T01:14:25;99500.19;;;22.28;100.00
18275;BME280;19470;49.322;7.218;2022-10-18T01:16:58;99493.97;;;22.14;100.00
18275;BME280;19470;49.322;7.218;2022-10-18T01:19:59;99496.84;;;22.04;100.00
18275;BME280;19470;49.322;7.218;2022-10-18T01:22:31;99491.59;;;22.12;100.00
18275;BME280;19470;49.322;7.218;2022-10-18T01:25:19;99499.28;;;21.86;100.00
18275;BME280;19470;49.322;7.218;2022-10-18T01:27:54;99491.44;;;22.04;100.00
18275;BME280;19470;49.322;7.218;2022-10-18T01:30:37;99491.81;;;21.83;100.00
18275;BME280;19470;49.322;7.218;2022-10-18T01:33:11;99493.81;;;21.91;100.00
18275;BME280;19470;49.322;7.218;2022-10-18T01:35:44;99496.72;;;21.62;100.00
18275;BME280;19470;49.322;7.218;2022-10-18T01:38:14;99511.69;;;20.74;100.00
18275;BME280;19470;49.322;7.218;2022-10-18T01:40:44;99514.84;;;21.00;100.00
18275;BME280;19470;49.322;7.218;2022-10-18T01:43:12;99501.31;;;21.62;100.00
18275;BME280;19470;49.322;7.218;2022-10-18T01:45:42;99503.13;;;21.99;100.00
18275;BME280;19470;49.322;7.218;2022-10-18T01:48:09;99504.66;;;21.54;100.00
18275;BME280;19470;49.322;7.218;2022-10-18T01:50:37;99505.69;;;21.90;100.00
18275;BME280;19470;49.322;7.218;2022-10-18T01:53:03;99503.00;;;22.23;100.00
18275;BME280;19470;49.322;7.218;2022-10-18T01:55:36;99492.44;;;22.08;100.00
18275;BME280;19470;49.322;7.218;2022-10-18T01:58:13;99502.91;;;21.63;100.00
18275;BME280;19470;49.322;7.218;2022-10-18T02:00:47;99501.59;;;22.12;100.00
18275;BME280;19470;49.322;7.218;2022-10-18T02:03:21;99505.19;;;22.21;100.00
18275;BME280;19470;49.322;7.218;2022-10-18T02:05:51;99499.06;;;22.84;100.00
18275;BME280;19470;49.322;7.218;2022-10-18T02:08:25;99501.91;;;22.93;100.00
18275;BME280;19470;49.322;7.218;2022-10-18T02:10:55;99497.38;;;22.75;100.00
18275;BME280;19470;49.322;7.218;2022-10-18T02:13:24;99491.94;;;22.06;100.00
18275;BME280;19470;49.322;7.218;2022-10-18T02:16:03;99498.53;;;22.00;100.00
18275;BME280;19470;49.322;7.218;2022-10-18T02:18:35;99495.00;;;21.85;100.00
18275;BME280;19470;49.322;7.218;2022-10-18T02:21:04;99497.31;;;22.06;100.00
18275;BME280;19470;49.322;7.218;2022-10-18T02:23:33;99495.13;;;21.94;100.00
18275;BME280;19470;49.322;7.218;2022-10-18T02:26:01;99491.72;;;21.88;100.00
18275;BME280;19470;49.322;7.218;2022-10-18T02:28:27;99496.22;;;22.26;100.00
18275;BME280;19470;49.322;7.218;2022-10-18T02:31:01;99484.13;;;21.90;100.00
18275;BME280;19470;49.322;7.218;2022-10-18T02:33:33;99488.97;;;21.75;100.00
18275;BME280;19470;49.322;7.218;2022-10-18T02:36:03;99480.66;;;22.04;100.00
18275;BME280;19470;49.322;7.218;2022-10-18T02:38:32;99482.91;;;21.31;100.00
18275;BME280;19470;49.322;7.218;2022-10-18T02:40:59;99476.53;;;21.79;100.00
18275;BME280;19470;49.322;7.218;2022-10-18T02:43:26;99478.25;;;21.18;100.00
18275;BME280;19470;49.322;7.218;2022-10-18T02:45:53;99477.97;;;21.38;100.00
18275;BME280;19470;49.322;7.218;2022-10-18T02:48:21;99499.63;;;20.48;100.00
18275;BME280;19470;49.322;7.218;2022-10-18T02:50:47;99501.72;;;20.75;100.00
18275;BME280;19470;49.322;7.218;2022-10-18T02:53:14;99488.72;;;21.90;100.00
18275;BME280;19470;49.322;7.218;2022-10-18T02:55:40;99498.00;;;21.51;100.00
18275;BME280;19470;49.322;7.218;2022-10-18T02:58:07;99490.91;;;21.88;100.00
18275;BME280;19470;49.322;7.218;2022-10-18T03:00:33;99494.13;;;21.38;100.00
18275;BME280;19470;49.322;7.218;2022-10-18T03:03:00;99494.91;;;21.58;100.00
18275;BME280;19470;49.322;7.218;2022-10-18T03:05:28;99499.41;;;21.62;100.00
18275;BME280;19470;49.322;7.218;2022-10-18T03:07:55;99497.31;;;21.03;100.00
18275;BME280;19470;49.322;7.218;2022-10-18T03:10:21;99506.41;;;21.26;100.00
18275;BME280;19470;49.322;7.218;2022-10-18T03:16:10;99502.69;;;21.22;100.00
18275;BME280;19470;49.322;7.218;2022-10-18T03:18:37;99505.06;;;21.47;100.00
18275;BME280;19470;49.322;7.218;2022-10-18T03:21:05;99507.81;;;21.23;100.00
18275;BME280;19470;49.322;7.218;2022-10-18T03:23:32;99506.78;;;20.57;100.00
18275;BME280;19470;49.322;7.218;2022-10-18T03:25:59;99512.31;;;20.90;100.00
18275;BME280;19470;49.322;7.218;2022-10-18T03:28:25;99517.28;;;21.58;100.00
18275;BME280;19470;49.322;7.218;2022-10-18T03:30:52;99511.53;;;21.27;100.00
18275;BME280;19470;49.322;7.218;2022-10-18T03:33:18;99508.19;;;21.35;100.00
18275;BME280;19470;49.322;7.218;2022-10-18T03:35:45;99511.09;;;21.39;100.00
18275;BME280;19470;49.322;7.218;2022-10-18T03:38:13;99508.81;;;20.89;100.00
18275;BME280;19470;49.322;7.218;2022-10-18T03:40:39;99507.22;;;21.26;100.00
18275;BME280;19470;49.322;7.218;2022-10-18T03:43:06;99515.97;;;21.18;100.00
18275;BME280;19470;49.322;7.218;2022-10-18T03:45:32;99518.09;;;20.78;100.00
18275;BME280;19470;49.322;7.218;2022-10-18T03:48:20;99512.53;;;21.12;100.00
18275;BME280;19470;49.322;7.218;2022-10-18T03:50:46;99514.72;;;21.29;100.00
18275;BME280;19470;49.322;7.218;2022-10-18T03:53:14;99519.06;;;21.06;100.00
18275;BME280;19470;49.322;7.218;2022-10-18T03:55:41;99518.09;;;20.78;100.00
18275;BME280;19470;49.322;7.218;2022-10-18T03:58:08;99524.84;;;21.00;100.00
18275;BME280;19470;49.322;7.218;2022-10-18T04:00:35;99527.78;;;20.98;100.00
18275;BME280;19470;49.322;7.218;2022-10-18T04:03:01;99533.53;;;20.20;100.00
18275;BME280;19470;49.322;7.218;2022-10-18T04:05:28;99542.09;;;20.75;100.00
18275;BME280;19470;49.322;7.218;2022-10-18T04:07:56;99540.53;;;20.92;100.00
18275;BME280;19470;49.322;7.218;2022-10-18T04:10:24;99551.53;;;20.96;100.00
18275;BME280;19470;49.322;7.218;2022-10-18T04:12:50;99542.44;;;21.11;100.00
18275;BME280;19470;49.322;7.218;2022-10-18T04:15:17;99533.53;;;21.53;100.00
18275;BME280;19470;49.322;7.218;2022-10-18T04:17:43;99542.31;;;21.21;100.00
18275;BME280;19470;49.322;7.218;2022-10-18T04:20:11;99540.63;;;21.06;100.00
18275;BME280;19470;49.322;7.218;2022-10-18T04:22:37;99552.72;;;21.09;100.00
18275;BME280;19470;49.322;7.218;2022-10-18T04:25:04;99544.19;;;21.02;100.00
18275;BME280;19470;49.322;7.218;2022-10-18T04:27:32;99541.41;;;21.07;100.00
18275;BME280;19470;49.322;7.218;2022-10-18T04:29:59;99541.53;;;21.39;100.00
18275;BME280;19470;49.322;7.218;2022-10-18T04:45:53;99552.72;;;21.84;100.00
18275;BME280;19470;49.322;7.218;2022-10-18T04:48:20;99550.13;;;21.60;100.00
18275;BME280;19470;49.322;7.218;2022-10-18T04:50:46;99548.66;;;22.01;100.00
18275;BME280;19470;49.322;7.218;2022-10-18T04:59:56;99533.91;;;21.47;100.00
18275;BME280;19470;49.322;7.218;2022-10-18T05:02:24;99534.91;;;21.69;100.00
18275;BME280;19470;49.322;7.218;2022-10-18T05:04:51;99519.75;;;21.55;100.00
18275;BME280;19470;49.322;7.218;2022-10-18T05:07:17;99522.38;;;21.60;100.00
18275;BME280;19470;49.322;7.218;2022-10-18T05:09:44;99513.88;;;21.85;100.00
18275;BME280;19470;49.322;7.218;2022-10-18T05:12:10;99511.44;;;22.03;100.00
18275;BME280;19470;49.322;7.218;2022-10-18T05:14:37;99522.28;;;21.84;100.00
18275;BME280;19470;49.322;7.218;2022-10-18T05:17:03;99516.56;;;22.18;100.00
18275;BME280;19470;49.322;7.218;2022-10-18T05:19:31;99522.78;;;21.67;100.00
18275;BME280;19470;49.322;7.218;2022-10-18T05:21:58;99522.22;;;20.95;100.00
18275;BME280;19470;49.322;7.218;2022-10-18T05:24:24;99536.75;;;20.16;100.00
18275;BME280;19470;49.322;7.218;2022-10-18T05:26:51;99542.47;;;20.39;100.00
18275;BME280;19470;49.322;7.218;2022-10-18T05:29:17;99547.81;;;20.68;100.00
18275;BME280;19470;49.322;7.218;2022-10-18T05:31:44;99537.44;;;21.23;100.00
18275;BME280;19470;49.322;7.218;2022-10-18T05:34:10;99548.53;;;21.92;100.00
18275;BME280;19470;49.322;7.218;2022-10-18T05:36:38;99556.66;;;21.73;100.00
18275;BME280;19470;49.322;7.218;2022-10-18T05:39:05;99559.56;;;21.20;100.00
18275;BME280;19470;49.322;7.218;2022-10-18T05:41:31;99566.16;;;21.33;100.00
18275;BME280;19470;49.322;7.218;2022-10-18T05:44:02;99563.31;;;21.62;100.00
18275;BME280;19470;49.322;7.218;2022-10-18T05:46:29;99570.00;;;21.83;100.00
18275;BME280;19470;49.322;7.218;2022-10-18T05:48:55;99569.34;;;21.73;100.00
18275;BME280;19470;49.322;7.218;2022-10-18T05:51:22;99572.34;;;21.33;100.00
18275;BME280;19470;49.322;7.218;2022-10-18T05:53:49;99582.84;;;21.54;100.00
18275;BME280;19470;49.322;7.218;2022-10-18T05:56:17;99574.59;;;21.64;100.00
18275;BME280;19470;49.322;7.218;2022-10-18T05:58:43;99575.13;;;21.47;100.00
18275;BME280;19470;49.322;7.218;2022-10-18T06:01:14;99570.75;;;21.70;100.00
18275;BME280;19470;49.322;7.218;2022-10-18T06:03:41;99581.31;;;21.48;100.00
18275;BME280;19470;49.322;7.218;2022-10-18T06:06:09;99578.31;;;21.06;100.00
18275;BME280;19470;49.322;7.218;2022-10-18T06:08:37;99583.28;;;20.99;100.00
18275;BME280;19470;49.322;7.218;2022-10-18T06:11:09;99586.38;;;20.87;100.00
18275;BME280;19470;49.322;7.218;2022-10-18T06:13:40;99593.69;;;20.58;100.00
18275;BME280;19470;49.322;7.218;2022-10-18T06:16:07;99588.00;;;21.07;100.00
18275;BME280;19470;49.322;7.218;2022-10-18T06:18:34;99587.34;;;21.58;100.00
18275;BME280;19470;49.322;7.218;2022-10-18T06:21:01;99587.19;;;21.87;100.00
18275;BME280;19470;49.322;7.218;2022-10-18T06:23:27;99590.41;;;21.71;100.00
18275;BME280;19470;49.322;7.218;2022-10-18T06:25:57;99589.41;;;21.66;100.00
18275;BME280;19470;49.322;7.218;2022-10-18T06:28:26;99588.31;;;22.19;100.00
18275;BME280;19470;49.322;7.218;2022-10-18T06:30:53;99589.78;;;22.58;100.00
18275;BME280;19470;49.322;7.218;2022-10-18T06:33:19;99602.38;;;21.83;100.00
18275;BME280;19470;49.322;7.218;2022-10-18T06:35:53;99606.94;;;21.45;100.00
18275;BME280;19470;49.322;7.218;2022-10-18T06:38:20;99602.41;;;21.59;100.00
18275;BME280;19470;49.322;7.218;2022-10-18T06:40:47;99606.19;;;21.96;100.00
18275;BME280;19470;49.322;7.218;2022-10-18T06:43:13;99612.81;;;22.04;100.00
18275;BME280;19470;49.322;7.218;2022-10-18T06:45:42;99613.56;;;21.90;100.00
18275;BME280;19470;49.322;7.218;2022-10-18T06:48:08;99620.28;;;21.74;100.00
18275;BME280;19470;49.322;7.218;2022-10-18T06:50:34;99621.50;;;22.19;100.00
18275;BME280;19470;49.322;7.218;2022-10-18T06:53:01;99623.38;;;22.00;100.00
18275;BME280;19470;49.322;7.218;2022-10-18T06:55:30;99630.91;;;21.47;100.00
18275;BME280;19470;49.322;7.218;2022-10-18T06:57:57;99641.31;;;21.34;100.00
18275;BME280;19470;49.322;7.218;2022-10-18T07:00:23;99635.63;;;21.55;100.00
18275;BME280;19470;49.322;7.218;2022-10-18T07:02:51;99632.50;;;22.23;100.00
18275;BME280;19470;49.322;7.218;2022-10-18T07:05:18;99631.00;;;22.77;100.00
18275;BME280;19470;49.322;7.218;2022-10-18T07:07:44;99641.16;;;22.20;100.00
18275;BME280;19470;49.322;7.218;2022-10-18T07:10:11;99639.75;;;22.41;100.00
18275;BME280;19470;49.322;7.218;2022-10-18T07:12:37;99642.16;;;22.57;100.00
18275;BME280;19470;49.322;7.218;2022-10-18T07:15:05;99644.66;;;22.20;100.00
18275;BME280;19470;49.322;7.218;2022-10-18T07:17:32;99645.28;;;22.17;100.00
18275;BME280;19470;49.322;7.218;2022-10-18T07:19:59;99641.06;;;22.11;100.00
18275;BME280;19470;49.322;7.218;2022-10-18T07:22:28;99650.72;;;22.31;100.00
18275;BME280;19470;49.322;7.218;2022-10-18T07:24:54;99655.38;;;22.58;100.00
18275;BME280;19470;49.322;7.218;2022-10-18T07:27:21;99651.72;;;22.35;100.00
18275;BME280;19470;49.322;7.218;2022-10-18T07:29:48;99652.53;;;22.82;100.00
18275;BME280;19470;49.322;7.218;2022-10-18T07:32:14;99652.47;;;23.15;100.00
18275;BME280;19470;49.322;7.218;2022-10-18T07:34:41;99658.94;;;23.28;100.00
18275;BME280;19470;49.322;7.218;2022-10-18T07:37:08;99662.25;;;21.80;100.00
18275;BME280;19470;49.322;7.218;2022-10-18T07:39:35;99664.72;;;22.33;100.00
18275;BME280;19470;49.322;7.218;2022-10-18T07:42:01;99666.75;;;22.41;100.00
18275;BME280;19470;49.322;7.218;2022-10-18T07:44:28;99668.50;;;22.32;100.00
18275;BME280;19470;49.322;7.218;2022-10-18T07:46:54;99667.09;;;22.81;100.00
18275;BME280;19470;49.322;7.218;2022-10-18T07:49:21;99665.78;;;22.98;100.00
18275;BME280;19470;49.322;7.218;2022-10-18T07:51:47;99675.81;;;22.78;100.00
18275;BME280;19470;49.322;7.218;2022-10-18T07:54:15;99671.44;;;23.37;100.00
18275;BME280;19470;49.322;7.218;2022-10-18T07:56:42;99675.03;;;23.46;100.00
18275;BME280;19470;49.322;7.218;2022-10-18T07:59:09;99672.34;;;23.33;100.00
18275;BME280;19470;49.322;7.218;2022-10-18T08:01:35;99674.69;;;23.12;100.00
18275;BME280;19470;49.322;7.218;2022-10-18T08:04:02;99683.09;;;22.64;100.00
18275;BME280;19470;49.322;7.218;2022-10-18T08:06:28;99681.28;;;22.92;100.00
18275;BME280;19470;49.322;7.218;2022-10-18T08:08:55;99682.38;;;23.05;100.00
18275;BME280;19470;49.322;7.218;2022-10-18T08:11:24;99685.06;;;23.05;100.00
18275;BME280;19470;49.322;7.218;2022-10-18T08:13:51;99692.59;;;23.08;100.00
18275;BME280;19470;49.322;7.218;2022-10-18T08:16:20;99703.09;;;23.51;100.00
18275;BME280;19470;49.322;7.218;2022-10-18T08:18:47;99707.50;;;22.91;100.00
18275;BME280;19470;49.322;7.218;2022-10-18T08:21:15;99699.97;;;22.56;100.00
18275;BME280;19470;49.322;7.218;2022-10-18T08:23:42;99703.50;;;23.30;100.00
18275;BME280;19470;49.322;7.218;2022-10-18T08:26:12;99713.09;;;23.09;100.00
18275;BME280;19470;49.322;7.218;2022-10-18T08:28:41;99707.91;;;23.26;100.00
18275;BME280;19470;49.322;7.218;2022-10-18T08:31:09;99714.09;;;22.99;100.00
18275;BME280;19470;49.322;7.218;2022-10-18T08:33:36;99713.06;;;22.95;100.00
18275;BME280;19470;49.322;7.218;2022-10-18T08:36:05;99720.00;;;22.68;100.00
18275;BME280;19470;49.322;7.218;2022-10-18T08:38:33;99707.97;;;22.93;100.00
18275;BME280;19470;49.322;7.218;2022-10-18T08:41:05;99722.31;;;23.21;100.00
18275;BME280;19470;49.322;7.218;2022-10-18T08:43:45;99720.84;;;22.83;100.00
18275;BME280;19470;49.322;7.218;2022-10-18T08:46:16;99728.72;;;22.47;100.00
18275;BME280;19470;49.322;7.218;2022-10-18T08:48:44;99728.22;;;22.77;100.00
18275;BME280;19470;49.322;7.218;2022-10-18T08:51:17;99726.22;;;23.15;100.00
18275;BME280;19470;49.322;7.218;2022-10-18T08:53:53;99734.03;;;23.17;100.00
18275;BME280;19470;49.322;7.218;2022-10-18T08:56:22;99724.03;;;23.31;100.00
18275;BME280;19470;49.322;7.218;2022-10-18T08:58:50;99716.91;;;23.49;100.00
18275;BME280;19470;49.322;7.218;2022-10-18T09:01:25;99727.31;;;23.83;100.00
18275;BME280;19470;49.322;7.218;2022-10-18T09:04:13;99719.16;;;23.97;100.00
18275;BME280;19470;49.322;7.218;2022-10-18T09:06:48;99713.53;;;23.43;100.00
18275;BME280;19470;49.322;7.218;2022-10-18T09:09:30;99716.59;;;22.77;100.00
18275;BME280;19470;49.322;7.218;2022-10-18T09:12:06;99723.06;;;24.05;100.00
18275;BME280;19470;49.322;7.218;2022-10-18T09:14:59;99722.50;;;22.98;100.00
18275;BME280;19470;49.322;7.218;2022-10-18T09:17:34;99723.59;;;22.64;100.00
18275;BME280;19470;49.322;7.218;2022-10-18T09:20:13;99732.09;;;24.00;100.00
18275;BME280;19470;49.322;7.218;2022-10-18T09:22:51;99732.28;;;23.90;100.00
18275;BME280;19470;49.322;7.218;2022-10-18T09:25:20;99728.53;;;23.22;100.00
18275;BME280;19470;49.322;7.218;2022-10-18T09:27:53;99733.72;;;23.32;100.00
18275;BME280;19470;49.322;7.218;2022-10-18T09:30:28;99734.13;;;23.12;100.00
18275;BME280;19470;49.322;7.218;2022-10-18T09:33:06;99734.94;;;23.81;99.15
18275;BME280;19470;49.322;7.218;2022-10-18T09:35:40;99736.69;;;24.00;97.21
18275;BME280;19470;49.322;7.218;2022-10-18T09:38:10;99728.84;;;24.12;96.86
18275;BME280;19470;49.322;7.218;2022-10-18T09:40:46;99732.44;;;22.83;100.00
18275;BME280;19470;49.322;7.218;2022-10-18T09:43:18;99728.09;;;23.56;100.00
18275;BME280;19470;49.322;7.218;2022-10-18T09:45:49;99733.25;;;24.08;97.36
18275;BME280;19470;49.322;7.218;2022-10-18T09:48:21;99734.19;;;23.89;98.49
18275;BME280;19470;49.322;7.218;2022-10-18T09:50:53;99732.03;;;25.04;91.01
18275;BME280;19470;49.322;7.218;2022-10-18T09:53:28;99739.72;;;23.43;100.00
18275;BME280;19470;49.322;7.218;2022-10-18T09:56:01;99742.69;;;23.00;100.00
18275;BME280;19470;49.322;7.218;2022-10-18T09:58:40;99741.47;;;24.03;98.04
18275;BME280;19470;49.322;7.218;2022-10-18T10:01:12;99735.88;;;23.99;96.80
18275;BME280;19470;49.322;7.218;2022-10-18T10:03:40;99744.06;;;24.08;96.30
18275;BME280;19470;49.322;7.218;2022-10-18T10:06:22;99739.63;;;24.26;95.56
18275;BME280;19470;49.322;7.218;2022-10-18T10:08:54;99745.69;;;24.45;94.53
18275;BME280;19470;49.322;7.218;2022-10-18T10:11:32;99743.97;;;24.13;97.53
18275;BME280;19470;49.322;7.218;2022-10-18T10:14:13;99739.59;;;24.84;92.64
18275;BME280;19470;49.322;7.218;2022-10-18T10:16:50;99742.44;;;24.20;95.09
18275;BME280;19470;49.322;7.218;2022-10-18T10:19:19;99747.16;;;23.79;97.54
18275;BME280;19470;49.322;7.218;2022-10-18T10:21:49;99747.16;;;24.73;89.35
18275;BME280;19470;49.322;7.218;2022-10-18T10:24:28;99749.44;;;24.58;90.87
18275;BME280;19470;49.322;7.218;2022-10-18T10:26:59;99756.91;;;24.16;94.63
18275;BME280;19470;49.322;7.218;2022-10-18T10:29:52;99761.66;;;25.00;86.84
18275;BME280;19470;49.322;7.218;2022-10-18T10:32:24;99758.34;;;23.17;96.20
18275;BME280;19470;49.322;7.218;2022-10-18T10:34:51;99757.94;;;23.92;93.43
18275;BME280;19470;49.322;7.218;2022-10-18T10:37:38;99749.72;;;23.97;92.84
18275;BME280;19470;49.322;7.218;2022-10-18T10:40:14;99754.06;;;24.21;92.72
18275;BME280;19470;49.322;7.218;2022-10-18T10:42:54;99749.25;;;23.95;94.49
18275;BME280;19470;49.322;7.218;2022-10-18T10:45:23;99745.00;;;23.89;95.47
18275;BME280;19470;49.322;7.218;2022-10-18T10:47:52;99745.94;;;24.21;93.21
18275;BME280;19470;49.322;7.218;2022-10-18T10:50:25;99740.00;;;25.88;84.00
18275;BME280;19470;49.322;7.218;2022-10-18T10:52:52;99744.81;;;24.58;88.54
18275;BME280;19470;49.322;7.218;2022-10-18T10:55:22;99742.66;;;23.74;91.80
18275;BME280;19470;49.322;7.218;2022-10-18T10:57:53;99752.06;;;24.13;92.25
18275;BME280;19470;49.322;7.218;2022-10-18T11:00:38;99750.94;;;23.91;92.16
18275;BME280;19470;49.322;7.218;2022-10-18T11:03:11;99758.59;;;24.12;92.25
18275;BME280;19470;49.322;7.218;2022-10-18T11:05:43;99757.28;;;24.23;91.33
18275;BME280;19470;49.322;7.218;2022-10-18T11:08:11;99761.56;;;23.88;94.02
18275;BME280;19470;49.322;7.218;2022-10-18T11:10:46;99763.38;;;23.51;93.12
18275;BME280;19470;49.322;7.218;2022-10-18T11:13:22;99758.91;;;24.10;90.80
18275;BME280;19470;49.322;7.218;2022-10-18T11:15:52;99759.53;;;24.66;87.33
18275;BME280;19470;49.322;7.218;2022-10-18T11:18:28;99754.13;;;24.66;86.26
18275;BME280;19470;49.322;7.218;2022-10-18T11:21:00;99746.53;;;24.54;86.04
18275;BME280;19470;49.322;7.218;2022-10-18T11:23:33;99745.81;;;25.16;82.40
18275;BME280;19470;49.322;7.218;2022-10-18T11:26:12;99744.72;;;24.94;83.56
18275;BME280;19470;49.322;7.218;2022-10-18T11:28:58;99753.97;;;23.49;90.82
18275;BME280;19470;49.322;7.218;2022-10-18T11:31:31;99749.16;;;23.45;92.44
18275;BME280;19470;49.322;7.218;2022-10-18T11:34:14;99747.56;;;23.72;91.96
18275;BME280;19470;49.322;7.218;2022-10-18T11:36:50;99744.16;;;23.39;93.51
18275;BME280;19470;49.322;7.218;2022-10-18T11:39:28;99752.53;;;23.24;94.57
18275;BME280;19470;49.322;7.218;2022-10-18T11:42:02;99764.50;;;23.64;91.48
18275;BME280;19470;49.322;7.218;2022-10-18T11:44:38;99755.16;;;23.70;92.88
18275;BME280;19470;49.322;7.218;2022-10-18T11:47:14;99754.25;;;23.33;95.88
18275;BME280;19470;49.322;7.218;2022-10-18T11:49:56;99754.78;;;23.77;94.14
18275;BME280;19470;49.322;7.218;2022-10-18T11:52:31;99759.16;;;23.59;95.15
18275;BME280;19470;49.322;7.218;2022-10-18T11:55:18;99754.25;;;23.88;93.06
18275;BME280;19470;49.322;7.218;2022-10-18T11:57:53;99753.75;;;23.31;96.18
18275;BME280;19470;49.322;7.218;2022-10-18T12:00:34;99750.38;;;23.39;96.18
18275;BME280;19470;49.322;7.218;2022-10-18T12:03:17;99749.34;;;23.90;94.56
18275;BME280;19470;49.322;7.218;2022-10-18T12:05:47;99744.13;;;23.80;94.72
18275;BME280;19470;49.322;7.218;2022-10-18T12:08:18;99733.53;;;23.42;99.06
18275;BME280;19470;49.322;7.218;2022-10-18T12:10:48;99744.13;;;23.80;94.99
18275;BME280;19470;49.322;7.218;2022-10-18T12:13:23;99745.16;;;23.29;97.83
18275;BME280;19470;49.322;7.218;2022-10-18T12:15:51;99742.22;;;23.12;99.17
18275;BME280;19470;49.322;7.218;2022-10-18T12:18:20;99743.03;;;23.26;99.33
18275;BME280;19470;49.322;7.218;2022-10-18T12:20:53;99742.56;;;23.65;96.54
18275;BME280;19470;49.322;7.218;2022-10-18T12:23:35;99738.47;;;24.04;93.24
18275;BME280;19470;49.322;7.218;2022-10-18T12:26:06;99734.72;;;23.91;94.22
18275;BME280;19470;49.322;7.218;2022-10-18T12:28:41;99738.28;;;24.01;93.59
18275;BME280;19470;49.322;7.218;2022-10-18T12:31:16;99732.34;;;23.49;97.04
18275;BME280;19470;49.322;7.218;2022-10-18T12:33:47;99729.13;;;23.74;94.89
18275;BME280;19470;49.322;7.218;2022-10-18T12:36:29;99734.56;;;24.10;94.16
18275;BME280;19470;49.322;7.218;2022-10-18T12:39:05;99730.75;;;24.47;90.29
18275;BME280;19470;49.322;7.218;2022-10-18T12:41:35;99726.94;;;24.35;92.08
18275;BME280;19470;49.322;7.218;2022-10-18T12:44:04;99729.00;;;23.79;93.52
18275;BME280;19470;49.322;7.218;2022-10-18T12:46:44;99728.13;;;24.65;90.18
18275;BME280;19470;49.322;7.218;2022-10-18T12:49:13;99732.34;;;23.76;93.82
18275;BME280;19470;49.322;7.218;2022-10-18T12:51:51;99732.88;;;22.90;100.00
18275;BME280;19470;49.322;7.218;2022-10-18T12:54:21;99730.00;;;23.56;99.49
18275;BME280;19470;49.322;7.218;2022-10-18T12:56:48;99719.41;;;23.45;100.00
18275;BME280;19470;49.322;7.218;2022-10-18T12:59:48;99720.53;;;23.72;96.57
18275;BME280;19470;49.322;7.218;2022-10-18T13:02:23;99721.72;;;23.25;100.00
18275;BME280;19470;49.322;7.218;2022-10-18T13:04:50;99724.13;;;23.54;99.55
18275;BME280;19470;49.322;7.218;2022-10-18T13:07:33;99712.66;;;22.88;100.00
18275;BME280;19470;49.322;7.218;2022-10-18T13:10:38;99716.41;;;23.19;100.00
18275;BME280;19470;49.322;7.218;2022-10-18T13:16:26;99713.59;;;24.16;95.36
18275;BME280;19470;49.322;7.218;2022-10-18T13:18:58;99714.00;;;23.59;96.51
18275;BME280;19470;49.322;7.218;2022-10-18T13:21:34;99713.78;;;24.19;94.70
18275;BME280;19470;49.322;7.218;2022-10-18T13:24:20;99712.56;;;23.89;96.71
18275;BME280;19470;49.322;7.218;2022-10-18T13:27:01;99712.78;;;23.24;99.66
18275;BME280;19470;49.322;7.218;2022-10-18T13:29:46;99716.28;;;23.52;97.96
18275;BME280;19470;49.322;7.218;2022-10-18T13:32:23;99709.50;;;23.55;99.27
18275;BME280;19470;49.322;7.218;2022-10-18T13:34:52;99709.31;;;23.65;95.95
18275;BME280;19470;49.322;7.218;2022-10-18T13:37:21;99709.06;;;23.61;97.31
18275;BME280;19470;49.322;7.218;2022-10-18T13:39:51;99710.19;;;24.78;90.15